Time;durP1;ratioP1;P1;durP2;ratioP2;P2;SDS_P1;SDS_P2;PMS_P1;PMS_P2;Temp;Humidity;BMP_temperature;BMP_pressure;BME280_temperature;BME280_humidity;BME280_pressure;Samples;Min_cycle;Max_cycle;Signal;HPM_P1;HPM_P2
2022/01/22 00:00:34;;;;;;;7.10;5.65;;;2.40;99.90;;;;;;459899;258;27462;-68
2022/01/22 00:02:36;;;;;;;7.95;5.65;;;2.40;99.90;;;;;;459886;258;27529;-69
2022/01/22 00:04:37;;;;;;;7.30;5.90;;;2.40;99.90;;;;;;459874;258;27554;-68
2022/01/22 00:06:38;;;;;;;9.45;6.43;;;2.40;99.90;;;;;;459866;255;27495;-69
2022/01/22 00:08:39;;;;;;;7.07;5.90;;;2.40;99.90;;;;;;459874;258;27838;-68
2022/01/22 00:10:43;;;;;;;10.43;6.85;;;2.40;99.90;;;;;;459902;258;27463;-69
2022/01/22 00:14:52;;;;;;;9.23;6.30;;;2.40;99.90;;;;;;459891;258;27502;-68
2022/01/22 00:16:53;;;;;;;8.00;6.90;;;2.30;99.90;;;;;;459861;258;27938;-68
2022/01/22 00:18:55;;;;;;;11.12;7.18;;;2.30;99.90;;;;;;459863;258;27900;-68
2022/01/22 00:20:56;;;;;;;11.93;7.47;;;2.30;99.90;;;;;;459906;258;28126;-68
2022/01/22 00:22:57;;;;;;;10.00;7.82;;;2.40;99.90;;;;;;459881;258;27538;-68
2022/01/22 00:25:00;;;;;;;9.88;8.27;;;2.40;99.90;;;;;;459864;258;27566;-68
2022/01/22 00:27:00;;;;;;;10.38;7.70;;;2.40;99.90;;;;;;459845;258;27543;-68
2022/01/22 00:29:01;;;;;;;10.70;8.10;;;2.40;99.90;;;;;;459882;258;27460;-68
2022/01/22 00:31:02;;;;;;;16.90;8.45;;;2.40;99.90;;;;;;459891;258;27502;-68
2022/01/22 00:33:03;;;;;;;11.07;7.45;;;2.40;99.90;;;;;;459872;258;27571;-68
2022/01/22 00:35:05;;;;;;;12.43;8.38;;;2.40;99.90;;;;;;459843;258;27585;-68
2022/01/22 00:37:06;;;;;;;10.65;7.85;;;2.40;99.90;;;;;;459846;258;27990;-68
2022/01/22 00:39:07;;;;;;;10.60;8.02;;;2.40;99.90;;;;;;459876;258;28019;-68
2022/01/22 00:41:09;;;;;;;13.50;7.72;;;2.40;99.90;;;;;;459829;258;27978;-68
2022/01/22 00:43:10;;;;;;;9.35;7.65;;;2.40;99.90;;;;;;459684;258;28066;-68
2022/01/22 00:45:11;;;;;;;14.43;8.73;;;2.40;99.90;;;;;;459677;258;27519;-68
2022/01/22 00:47:12;;;;;;;10.60;7.20;;;2.40;99.90;;;;;;459708;258;27525;-68
2022/01/22 00:49:13;;;;;;;11.65;7.18;;;2.40;99.90;;;;;;459699;258;27478;-68
2022/01/22 00:51:15;;;;;;;12.20;8.90;;;2.40;99.90;;;;;;459836;258;27582;-68
2022/01/22 00:53:16;;;;;;;10.57;7.87;;;2.40;99.90;;;;;;459860;258;27582;-68
2022/01/22 00:55:17;;;;;;;12.88;8.50;;;2.40;99.90;;;;;;459860;258;27514;-68
2022/01/22 00:57:18;;;;;;;8.95;7.45;;;2.40;99.90;;;;;;459872;258;27502;-68
2022/01/22 00:59:20;;;;;;;11.65;8.18;;;2.40;99.90;;;;;;459856;258;27995;-68
2022/01/22 01:01:21;;;;;;;13.25;8.48;;;2.40;99.90;;;;;;459867;258;28035;-68
2022/01/22 01:03:22;;;;;;;11.55;7.30;;;2.40;99.90;;;;;;459868;258;28022;-68
2022/01/22 01:05:23;;;;;;;10.20;7.90;;;2.40;99.90;;;;;;459871;258;27551;-68
2022/01/22 01:07:25;;;;;;;12.20;7.97;;;2.40;99.90;;;;;;459889;258;27499;-68
2022/01/22 01:09:26;;;;;;;11.45;7.87;;;2.40;99.90;;;;;;459866;258;27502;-68
2022/01/22 01:11:29;;;;;;;11.20;9.43;;;2.30;99.90;;;;;;459852;258;27503;-68
2022/01/22 01:13:32;;;;;;;11.88;8.70;;;2.40;99.90;;;;;;459839;258;27502;-68
2022/01/22 01:15:43;;;;;;;13.07;8.65;;;2.40;99.90;;;;;;459851;258;27575;-68
2022/01/22 01:33:51;;;;;;;11.27;7.55;;;2.40;99.90;;;;;;459884;258;27502;-68
2022/01/22 01:35:43;;;;;;;13.52;8.73;;;2.40;99.90;;;;;;460327;258;27967;-68
2022/01/22 01:37:44;;;;;;;14.65;8.00;;;2.40;99.90;;;;;;459868;258;28015;-68
2022/01/22 01:39:47;;;;;;;11.45;8.52;;;2.40;99.90;;;;;;459849;258;28066;-68
2022/01/22 01:41:55;;;;;;;12.00;7.65;;;2.40;99.90;;;;;;459867;258;27471;-68
2022/01/22 01:43:51;;;;;;;10.38;7.97;;;2.40;99.90;;;;;;459888;258;27543;-68
2022/01/22 01:45:52;;;;;;;11.48;7.68;;;2.40;99.90;;;;;;459876;258;27495;-68
2022/01/22 01:47:53;;;;;;;9.00;7.57;;;2.40;99.90;;;;;;459858;258;27473;-68
2022/01/22 01:49:54;;;;;;;10.32;7.57;;;2.40;99.90;;;;;;459872;258;27558;-68
2022/01/22 01:51:58;;;;;;;11.85;7.68;;;2.40;99.90;;;;;;459888;258;27590;-68
2022/01/22 01:54:07;;;;;;;10.52;7.62;;;2.40;99.90;;;;;;459895;258;27539;-68
2022/01/22 01:57:23;;;;;;;10.98;7.03;;;2.40;99.90;;;;;;459901;258;27459;-68
2022/01/22 01:58:02;;;;;;;9.55;7.40;;;2.40;99.90;;;;;;459941;258;27517;-68
2022/01/22 02:00:03;;;;;;;10.13;7.95;;;2.50;99.90;;;;;;459887;258;28701;-68
2022/01/22 02:02:05;;;;;;;9.98;7.35;;;2.40;99.90;;;;;;459896;258;27939;-68
2022/01/22 02:04:08;;;;;;;9.02;7.60;;;2.50;99.90;;;;;;459879;258;27997;-69
2022/01/22 02:06:07;;;;;;;11.40;7.85;;;2.50;99.90;;;;;;459860;258;27460;-68
2022/01/22 02:08:08;;;;;;;15.85;8.40;;;2.50;99.90;;;;;;459865;258;27522;-68
2022/01/22 02:10:13;;;;;;;13.75;8.38;;;2.50;99.90;;;;;;459871;258;27491;-68
2022/01/22 02:12:17;;;;;;;15.57;7.70;;;2.40;99.90;;;;;;459873;258;27535;-68
2022/01/22 02:23:32;;;;;;;10.38;7.22;;;2.40;99.90;;;;;;460352;258;27548;-68
2022/01/22 02:23:36;;;;;;;13.23;8.35;;;2.40;99.90;;;;;;459871;258;27938;-68
2022/01/22 02:25:33;;;;;;;9.80;7.87;;;2.40;99.90;;;;;;460194;258;28159;-68
2022/01/22 02:27:33;;;;;;;10.73;7.95;;;2.40;99.90;;;;;;459876;258;27920;-69
2022/01/22 02:29:35;;;;;;;13.15;8.50;;;2.40;99.90;;;;;;459848;258;27509;-68
2022/01/22 02:31:41;;;;;;;11.40;7.93;;;2.40;99.90;;;;;;459907;258;27603;-68
2022/01/22 02:33:47;;;;;;;14.40;8.57;;;2.40;99.90;;;;;;459876;258;27510;-68
2022/01/22 02:35:48;;;;;;;14.93;8.60;;;2.40;99.90;;;;;;459705;258;27499;-68
2022/01/22 02:37:46;;;;;;;13.88;8.15;;;2.40;99.90;;;;;;459752;258;27532;-68
2022/01/22 02:39:58;;;;;;;14.87;8.80;;;2.40;99.90;;;;;;459837;258;27579;-68
2022/01/22 02:41:43;;;;;;;15.25;8.43;;;2.40;99.90;;;;;;459682;258;27603;-68
2022/01/22 02:43:46;;;;;;;14.70;7.70;;;2.40;99.90;;;;;;459867;258;27924;-68
2022/01/22 02:45:46;;;;;;;12.10;8.15;;;2.40;99.90;;;;;;459840;258;28066;-68
2022/01/22 02:47:46;;;;;;;16.25;9.25;;;2.40;99.90;;;;;;459845;258;27530;-68
2022/01/22 02:49:47;;;;;;;17.08;8.93;;;2.40;99.90;;;;;;459864;258;27483;-68
2022/01/22 02:51:49;;;;;;;13.73;8.98;;;2.40;99.90;;;;;;459874;258;27510;-68
2022/01/22 02:53:53;;;;;;;13.75;8.55;;;2.40;99.90;;;;;;459837;258;27572;-68
2022/01/22 02:55:52;;;;;;;14.48;8.70;;;2.40;99.90;;;;;;459859;258;27491;-68
2022/01/22 02:57:52;;;;;;;18.80;9.85;;;2.40;99.90;;;;;;459856;258;28416;-68
2022/01/22 02:59:54;;;;;;;14.95;8.88;;;2.40;99.90;;;;;;459894;258;28018;-68
2022/01/22 03:01:55;;;;;;;14.18;9.50;;;2.40;99.90;;;;;;459883;258;27978;-68
2022/01/22 03:03:56;;;;;;;13.18;9.63;;;2.40;99.90;;;;;;459841;258;27490;-68
2022/01/22 03:05:58;;;;;;;15.95;10.18;;;2.40;99.90;;;;;;459836;258;27507;-68
2022/01/22 03:08:04;;;;;;;11.55;8.45;;;2.40;99.90;;;;;;459873;258;27499;-68
2022/01/22 03:10:02;;;;;;;14.35;8.63;;;2.40;99.90;;;;;;459864;258;27458;-68
2022/01/22 03:14:56;;;;;;;11.45;8.30;;;2.40;99.90;;;;;;459849;258;27503;-68
2022/01/22 03:18:59;;;;;;;10.77;7.87;;;2.40;99.90;;;;;;459853;258;27513;-68
2022/01/22 03:23:07;;;;;;;9.18;7.85;;;2.40;99.90;;;;;;459875;258;27634;-68
2022/01/22 03:27:23;;;;;;;12.35;7.50;;;2.50;99.90;;;;;;459870;258;27523;-68
2022/01/22 03:29:32;;;;;;;10.95;7.70;;;2.40;99.90;;;;;;460309;258;27498;-68
2022/01/22 03:31:23;;;;;;;8.65;6.80;;;2.40;99.90;;;;;;459891;258;27913;-68
2022/01/22 03:33:25;;;;;;;10.15;7.62;;;2.50;99.90;;;;;;459849;258;27991;-68
2022/01/22 03:35:27;;;;;;;11.18;7.35;;;2.50;99.90;;;;;;459838;258;27914;-68
2022/01/22 03:37:26;;;;;;;10.90;7.72;;;2.50;99.90;;;;;;459902;258;27656;-68
2022/01/22 03:39:27;;;;;;;9.75;7.20;;;2.50;99.90;;;;;;459853;258;27578;-68
2022/01/22 03:41:30;;;;;;;10.32;7.32;;;2.50;99.90;;;;;;459874;258;27978;-68
2022/01/22 03:43:31;;;;;;;10.55;7.05;;;2.40;99.90;;;;;;459833;258;27931;-68
2022/01/22 03:45:32;;;;;;;8.20;6.50;;;2.50;99.90;;;;;;459838;258;27514;-68
2022/01/22 03:47:33;;;;;;;7.62;6.68;;;2.50;99.90;;;;;;459879;258;27487;-68
2022/01/22 03:49:35;;;;;;;12.65;7.90;;;2.40;99.90;;;;;;459856;258;27463;-68
2022/01/22 03:51:36;;;;;;;12.68;7.78;;;2.40;99.90;;;;;;459853;258;27578;-68
2022/01/22 03:53:37;;;;;;;13.20;8.27;;;2.40;99.90;;;;;;459845;258;27522;-68
2022/01/22 03:55:52;;;;;;;11.38;7.55;;;2.40;99.90;;;;;;459844;258;27537;-68
2022/01/22 03:57:41;;;;;;;12.32;7.72;;;2.40;99.90;;;;;;459916;258;27494;-68
2022/01/22 03:59:41;;;;;;;12.25;7.93;;;2.40;99.90;;;;;;459825;258;27466;-68
2022/01/22 04:04:00;;;;;;;11.43;9.50;;;2.40;99.90;;;;;;459882;258;28242;-68
2022/01/22 04:10:04;;;;;;;13.43;8.18;;;2.30;99.90;;;;;;459867;258;27599;-68
2022/01/22 04:12:04;;;;;;;10.55;7.55;;;2.40;99.90;;;;;;459861;258;27557;-68
2022/01/22 04:14:11;;;;;;;11.27;7.62;;;2.40;99.90;;;;;;459905;258;27572;-68
2022/01/22 04:16:08;;;;;;;11.95;8.63;;;2.40;99.90;;;;;;459905;258;27525;-68
2022/01/22 04:25:07;;;;;;;11.57;8.20;;;2.40;99.90;;;;;;459849;258;28014;-68
2022/01/22 04:27:13;;;;;;;12.63;8.95;;;2.40;99.90;;;;;;459897;258;27590;-68
2022/01/22 04:29:11;;;;;;;11.05;7.90;;;2.40;99.90;;;;;;459887;258;27452;-68
2022/01/22 04:31:13;;;;;;;11.57;7.10;;;2.40;99.90;;;;;;459875;258;27582;-68
2022/01/22 04:33:14;;;;;;;9.63;7.00;;;2.40;99.90;;;;;;459873;258;27551;-68
2022/01/22 04:35:15;;;;;;;9.77;6.78;;;2.40;99.90;;;;;;459863;258;28130;-68
2022/01/22 04:37:18;;;;;;;9.50;6.30;;;2.40;99.90;;;;;;459890;258;27959;-68
2022/01/22 04:39:21;;;;;;;9.00;6.50;;;2.40;99.90;;;;;;459877;258;27993;-68
2022/01/22 04:41:20;;;;;;;9.48;6.55;;;2.40;99.90;;;;;;459871;258;28061;-68
2022/01/22 04:43:20;;;;;;;10.48;7.12;;;2.40;99.90;;;;;;459861;258;27547;-68
2022/01/22 04:45:43;;;;;;;7.93;6.65;;;2.40;99.90;;;;;;459874;258;27556;-68
2022/01/22 04:47:58;;;;;;;11.43;6.78;;;2.40;99.90;;;;;;459932;258;27534;-68
2022/01/22 04:56:07;;;;;;;7.85;6.20;;;2.40;99.90;;;;;;454401;258;28161;-68
2022/01/22 04:58:09;;;;;;;10.13;6.43;;;2.40;99.90;;;;;;459880;258;28072;-68
2022/01/22 05:00:10;;;;;;;9.07;6.40;;;2.40;99.90;;;;;;459884;258;27544;-68
2022/01/22 05:02:11;;;;;;;7.87;5.95;;;2.50;99.90;;;;;;459866;258;27517;-68
2022/01/22 05:04:12;;;;;;;7.25;6.20;;;2.50;99.90;;;;;;459863;258;27462;-68
2022/01/22 05:06:14;;;;;;;9.48;6.05;;;2.50;99.90;;;;;;459844;258;27505;-68
2022/01/22 05:08:15;;;;;;;7.78;6.22;;;2.40;99.90;;;;;;459892;258;27531;-68
2022/01/22 05:10:16;;;;;;;6.35;5.40;;;2.40;99.90;;;;;;459886;258;27462;-68
2022/01/22 05:12:17;;;;;;;6.75;5.12;;;2.50;99.90;;;;;;459887;258;27502;-68
2022/01/22 05:14:19;;;;;;;9.82;6.15;;;2.50;99.90;;;;;;459851;258;27503;-68
2022/01/22 05:16:21;;;;;;;8.02;6.12;;;2.40;99.90;;;;;;459874;258;28023;-68
2022/01/22 05:18:21;;;;;;;6.15;5.55;;;2.50;99.90;;;;;;459864;258;27969;-69
2022/01/22 05:20:35;;;;;;;6.40;4.95;;;2.50;99.90;;;;;;459866;258;28046;-68
2022/01/22 05:22:52;;;;;;;6.43;5.47;;;2.50;99.90;;;;;;459688;258;28039;-68
2022/01/22 05:24:45;;;;;;;6.32;4.80;;;2.40;99.90;;;;;;459906;258;27969;-68
2022/01/22 05:37:51;;;;;;;6.30;4.32;;;2.40;99.90;;;;;;459866;258;27555;-68
2022/01/22 05:39:52;;;;;;;8.40;5.05;;;2.40;99.90;;;;;;460355;258;27492;-68
2022/01/22 05:41:54;;;;;;;6.45;4.12;;;2.40;99.90;;;;;;459878;258;27964;-68
2022/01/22 05:43:55;;;;;;;6.55;5.03;;;2.40;99.90;;;;;;459881;258;27951;-69
2022/01/22 05:45:56;;;;;;;5.93;4.90;;;2.40;99.90;;;;;;459878;258;28103;-68
2022/01/22 05:47:57;;;;;;;6.03;4.43;;;2.40;99.90;;;;;;459864;258;28776;-68
2022/01/22 05:50:01;;;;;;;8.20;4.40;;;2.40;99.90;;;;;;459864;258;27503;-68
2022/01/22 05:52:03;;;;;;;6.68;5.35;;;2.40;99.90;;;;;;459853;258;27583;-68
2022/01/22 06:00:57;;;;;;;4.53;3.75;;;2.40;99.90;;;;;;451559;263;27608;-68
2022/01/22 06:02:58;;;;;;;6.90;4.70;;;2.40;99.90;;;;;;451526;263;27614;-68
2022/01/22 06:04:59;;;;;;;4.53;4.12;;;2.40;99.90;;;;;;451560;263;27624;-68
2022/01/22 06:07:00;;;;;;;6.03;4.37;;;2.40;99.90;;;;;;451563;263;28124;-68
2022/01/22 06:09:04;;;;;;;5.45;4.85;;;2.40;99.90;;;;;;451562;263;28182;-69
2022/01/22 06:11:10;;;;;;;6.37;4.68;;;2.40;99.90;;;;;;451576;262;28420;-68
2022/01/22 06:13:16;;;;;;;5.18;4.68;;;2.40;99.90;;;;;;451559;262;27577;-68
2022/01/22 06:15:13;;;;;;;6.55;4.55;;;2.40;99.90;;;;;;451602;262;27638;-68
2022/01/22 06:17:15;;;;;;;5.20;4.65;;;2.40;99.90;;;;;;451523;263;27696;-68
2022/01/22 06:19:16;;;;;;;4.72;4.20;;;2.40;99.90;;;;;;451516;263;27581;-68
2022/01/22 06:21:17;;;;;;;8.88;4.78;;;2.40;99.90;;;;;;451560;263;27605;-68
2022/01/22 06:23:18;;;;;;;9.48;4.87;;;2.40;99.90;;;;;;451577;263;27637;-68
2022/01/22 06:25:20;;;;;;;6.85;4.95;;;2.40;99.90;;;;;;451551;263;27696;-68
2022/01/22 06:27:21;;;;;;;5.93;4.55;;;2.40;99.90;;;;;;451541;263;27609;-69
2022/01/22 06:29:22;;;;;;;8.65;4.70;;;2.40;99.90;;;;;;451558;263;29046;-68
2022/01/22 06:31:23;;;;;;;6.70;4.70;;;2.40;99.90;;;;;;455667;258;28015;-68
2022/01/22 06:33:25;;;;;;;6.47;4.78;;;2.40;99.90;;;;;;459865;258;28053;-68
2022/01/22 06:35:26;;;;;;;6.62;4.35;;;2.40;99.90;;;;;;459880;258;28037;-68
2022/01/22 06:37:27;;;;;;;6.30;4.90;;;2.40;99.90;;;;;;459884;258;27515;-68
2022/01/22 06:39:29;;;;;;;5.97;4.78;;;2.40;99.90;;;;;;459872;258;27583;-67
2022/01/22 06:41:45;;;;;;;6.37;5.10;;;2.40;99.90;;;;;;459899;258;27519;-68
2022/01/22 06:43:46;;;;;;;4.72;4.28;;;2.40;99.90;;;;;;459840;258;27464;-68
2022/01/22 06:45:48;;;;;;;7.65;4.30;;;2.40;99.90;;;;;;459872;258;27520;-68
2022/01/22 06:47:49;;;;;;;5.87;4.95;;;2.40;99.90;;;;;;459884;258;27603;-69
2022/01/22 06:49:50;;;;;;;5.60;4.90;;;2.40;99.90;;;;;;459872;258;27470;-68
2022/01/22 06:51:54;;;;;;;5.28;4.78;;;2.40;99.90;;;;;;459887;258;27621;-68
2022/01/22 06:53:53;;;;;;;7.50;4.65;;;2.40;99.90;;;;;;459877;258;27559;-68
2022/01/22 06:56:00;;;;;;;5.12;4.60;;;2.40;99.90;;;;;;459919;258;27474;-68
2022/01/22 06:57:58;;;;;;;5.35;4.55;;;2.40;99.90;;;;;;459869;258;27456;-68
2022/01/22 06:59:59;;;;;;;7.10;4.60;;;2.40;99.90;;;;;;459857;258;27533;-68
2022/01/22 07:02:00;;;;;;;6.22;4.72;;;2.40;99.90;;;;;;459847;258;27520;-68
2022/01/22 07:04:02;;;;;;;6.55;4.37;;;2.40;99.90;;;;;;459847;258;27506;-68
2022/01/22 07:06:03;;;;;;;5.10;4.60;;;2.40;99.90;;;;;;459907;258;27509;-68
2022/01/22 07:08:04;;;;;;;5.25;4.75;;;2.40;99.90;;;;;;459859;258;27566;-68
2022/01/22 07:10:06;;;;;;;7.53;5.12;;;2.40;99.90;;;;;;459879;258;27506;-68
2022/01/22 07:12:07;;;;;;;6.20;5.15;;;2.40;99.90;;;;;;459862;258;27565;-68
2022/01/22 07:14:08;;;;;;;5.85;5.00;;;2.40;99.90;;;;;;459851;258;27954;-68
2022/01/22 07:16:09;;;;;;;5.75;4.30;;;2.40;99.90;;;;;;459889;258;28098;-69
2022/01/22 07:18:13;;;;;;;4.90;4.40;;;2.40;99.90;;;;;;459898;258;27906;-68
2022/01/22 07:20:18;;;;;;;5.43;4.82;;;2.40;99.90;;;;;;459870;258;27973;-68
2022/01/22 07:22:33;;;;;;;4.80;4.30;;;2.40;99.90;;;;;;459845;258;28081;-68
2022/01/22 07:24:23;;;;;;;5.00;4.50;;;2.40;99.90;;;;;;459899;258;27535;-68
2022/01/22 07:26:25;;;;;;;4.72;4.32;;;2.40;99.90;;;;;;459856;258;27480;-68
2022/01/22 07:28:26;;;;;;;4.65;4.25;;;2.40;99.90;;;;;;459879;258;28109;-68
2022/01/22 07:30:27;;;;;;;4.75;4.25;;;2.40;99.90;;;;;;459886;258;27926;-68
2022/01/22 07:32:36;;;;;;;6.75;4.20;;;2.40;99.90;;;;;;459872;258;27993;-68
2022/01/22 07:34:33;;;;;;;4.78;4.28;;;2.40;99.90;;;;;;459887;258;27524;-68
2022/01/22 07:36:34;;;;;;;4.55;4.12;;;2.50;99.90;;;;;;459880;258;27498;-68
2022/01/22 07:38:38;;;;;;;4.78;4.28;;;2.50;99.90;;;;;;459863;258;27474;-68
2022/01/22 07:40:36;;;;;;;4.05;3.67;;;2.50;99.90;;;;;;459854;258;27516;-68
2022/01/22 07:42:39;;;;;;;4.43;3.60;;;2.50;99.90;;;;;;459871;258;27613;-68
2022/01/22 07:44:39;;;;;;;4.28;3.90;;;2.50;99.90;;;;;;459859;258;27470;-68
2022/01/22 07:46:40;;;;;;;4.85;3.70;;;2.50;99.90;;;;;;459883;258;27517;-68
2022/01/22 07:48:41;;;;;;;5.50;4.20;;;2.50;99.90;;;;;;459876;258;28050;-68
2022/01/22 07:50:43;;;;;;;4.30;3.50;;;2.50;99.90;;;;;;459870;258;27995;-68
2022/01/22 07:52:44;;;;;;;4.97;4.03;;;2.50;99.90;;;;;;459908;258;28056;-68
2022/01/22 07:54:45;;;;;;;4.80;4.30;;;2.50;99.90;;;;;;459906;258;27926;-68
2022/01/22 07:56:46;;;;;;;6.53;4.40;;;2.50;99.90;;;;;;459887;258;27500;-68
2022/01/22 07:58:48;;;;;;;4.32;3.92;;;2.50;99.90;;;;;;459884;258;27544;-69
2022/01/22 08:00:49;;;;;;;5.00;4.50;;;2.60;99.90;;;;;;459879;258;27538;-68
2022/01/22 08:02:50;;;;;;;4.50;4.07;;;2.50;99.90;;;;;;459883;258;27503;-68
2022/01/22 08:04:51;;;;;;;5.57;3.67;;;2.60;99.90;;;;;;459910;258;27460;-68
2022/01/22 08:06:53;;;;;;;4.85;3.87;;;2.60;99.90;;;;;;459873;258;27502;-68
2022/01/22 08:08:54;;;;;;;5.10;4.10;;;2.60;99.90;;;;;;459881;258;27475;-68
2022/01/22 08:10:56;;;;;;;4.43;4.03;;;2.60;99.90;;;;;;459864;258;27511;-68
2022/01/22 08:12:56;;;;;;;6.87;4.07;;;2.60;99.90;;;;;;459894;258;27592;-68
2022/01/22 08:14:58;;;;;;;5.22;4.53;;;2.70;99.90;;;;;;459875;258;27563;-68
2022/01/22 08:16:59;;;;;;;7.53;4.72;;;2.70;99.90;;;;;;459865;258;28034;-68
2022/01/22 08:19:00;;;;;;;4.40;4.00;;;2.60;99.90;;;;;;459865;258;28003;-68
2022/01/22 08:21:01;;;;;;;8.95;4.80;;;2.70;99.90;;;;;;459902;258;27942;-68
2022/01/22 08:23:03;;;;;;;7.40;4.53;;;2.70;99.90;;;;;;459885;258;28100;-68
2022/01/22 08:25:04;;;;;;;5.43;4.80;;;2.70;99.90;;;;;;459883;258;27460;-68
2022/01/22 08:28:53;;;;;;;9.85;4.22;;;2.70;99.90;;;;;;459847;258;27503;-68
2022/01/22 08:29:06;;;;;;;7.93;4.37;;;2.70;99.90;;;;;;456570;258;27481;-68
2022/01/22 08:31:24;;;;;;;5.32;4.20;;;2.70;99.90;;;;;;459881;258;27451;-68
2022/01/22 08:35:52;;;;;;;5.37;4.10;;;2.70;99.90;;;;;;459884;258;27463;-68
2022/01/22 08:37:41;;;;;;;5.30;4.32;;;2.80;99.90;;;;;;459808;258;27511;-68
2022/01/22 08:39:44;;;;;;;5.50;4.28;;;2.80;99.90;;;;;;460368;258;27529;-68
2022/01/22 08:41:45;;;;;;;4.72;4.15;;;2.90;99.90;;;;;;459873;258;27503;-68
2022/01/22 08:43:46;;;;;;;7.85;4.62;;;2.90;99.90;;;;;;459865;258;27555;-68
2022/01/22 08:45:49;;;;;;;7.53;4.60;;;3.00;99.90;;;;;;459843;258;27586;-68
2022/01/22 08:47:49;;;;;;;4.87;4.47;;;3.00;99.90;;;;;;459862;258;28533;-68
2022/01/22 08:49:50;;;;;;;6.32;4.95;;;3.00;99.90;;;;;;459882;258;27998;-69
2022/01/22 08:51:51;;;;;;;7.07;4.20;;;3.00;99.90;;;;;;459880;258;28076;-69
2022/01/22 08:53:55;;;;;;;8.32;5.18;;;3.00;99.90;;;;;;459858;258;27935;-69
2022/01/22 08:55:54;;;;;;;6.80;5.05;;;3.00;99.90;;;;;;459858;258;27595;-68
2022/01/22 08:57:55;;;;;;;6.10;4.65;;;3.00;99.90;;;;;;459883;258;27638;-69
2022/01/22 08:59:56;;;;;;;7.05;4.75;;;3.00;99.90;;;;;;459866;258;27460;-69
2022/01/22 09:01:58;;;;;;;9.55;4.53;;;3.10;99.90;;;;;;459852;258;27598;-68
2022/01/22 09:03:59;;;;;;;5.47;4.60;;;3.10;99.90;;;;;;459853;258;27528;-68
2022/01/22 09:06:00;;;;;;;7.00;5.53;;;3.20;99.90;;;;;;459854;258;27515;-69
2022/01/22 09:08:01;;;;;;;8.00;4.62;;;3.20;99.90;;;;;;459882;258;27503;-69
2022/01/22 09:10:03;;;;;;;7.50;5.00;;;3.20;99.90;;;;;;459875;258;27471;-69
2022/01/22 09:12:04;;;;;;;5.97;5.18;;;3.20;99.90;;;;;;459863;258;27507;-68
2022/01/22 09:14:05;;;;;;;7.22;5.65;;;3.20;99.90;;;;;;459860;258;27474;-68
2022/01/22 09:16:06;;;;;;;5.50;5.00;;;3.20;99.90;;;;;;459878;258;27936;-68
2022/01/22 09:18:08;;;;;;;8.35;5.72;;;3.20;99.90;;;;;;459863;258;28066;-68
2022/01/22 09:20:13;;;;;;;7.30;5.45;;;3.20;99.90;;;;;;459874;258;29016;-68
2022/01/22 09:22:10;;;;;;;8.77;5.18;;;3.20;99.90;;;;;;459862;258;27538;-68
2022/01/22 09:24:11;;;;;;;6.37;4.75;;;3.30;99.90;;;;;;459862;258;27486;-68
2022/01/22 09:26:13;;;;;;;7.95;5.47;;;3.30;99.90;;;;;;459873;258;27471;-68
2022/01/22 09:28:14;;;;;;;7.07;4.90;;;3.30;99.90;;;;;;459862;258;27568;-68
2022/01/22 09:30:15;;;;;;;6.62;5.28;;;3.30;99.90;;;;;;459833;258;27594;-69
2022/01/22 09:32:16;;;;;;;6.32;5.25;;;3.30;99.90;;;;;;459865;258;27619;-68
2022/01/22 09:34:18;;;;;;;8.05;5.45;;;3.30;99.90;;;;;;459868;258;27502;-68
2022/01/22 09:36:19;;;;;;;6.40;4.85;;;3.30;99.90;;;;;;459877;258;27467;-68
2022/01/22 09:38:20;;;;;;;6.22;5.62;;;3.30;99.90;;;;;;459877;258;27660;-68
2022/01/22 09:40:21;;;;;;;8.68;5.10;;;3.30;99.90;;;;;;459864;258;27529;-68
2022/01/22 09:42:23;;;;;;;9.65;5.50;;;3.40;99.90;;;;;;459861;258;27958;-68
2022/01/22 09:44:24;;;;;;;6.85;4.95;;;3.40;99.90;;;;;;459860;258;28056;-68
2022/01/22 09:46:25;;;;;;;6.25;5.20;;;3.40;99.90;;;;;;459890;255;27939;-68
2022/01/22 09:48:26;;;;;;;7.93;5.28;;;3.40;99.90;;;;;;459903;258;28005;-68
2022/01/22 09:50:28;;;;;;;8.88;5.70;;;3.50;99.90;;;;;;459885;258;27454;-68
2022/01/22 09:52:29;;;;;;;9.32;5.20;;;3.50;99.90;;;;;;459890;258;27603;-68
2022/01/22 09:54:30;;;;;;;7.80;5.97;;;3.50;99.90;;;;;;459910;258;27616;-68
2022/01/22 09:56:32;;;;;;;8.63;5.10;;;3.50;99.90;;;;;;459894;258;27464;-68
2022/01/22 09:58:33;;;;;;;5.87;4.85;;;3.60;99.90;;;;;;459883;258;27487;-68
2022/01/22 10:00:34;;;;;;;8.02;5.45;;;3.70;99.90;;;;;;459857;257;27510;-68
2022/01/22 10:02:35;;;;;;;8.75;5.75;;;3.70;99.90;;;;;;459849;258;27506;-68
2022/01/22 10:04:36;;;;;;;8.60;5.62;;;3.80;99.90;;;;;;459882;258;27545;-68
2022/01/22 10:06:38;;;;;;;9.48;5.70;;;3.80;99.90;;;;;;459871;258;27463;-68
2022/01/22 10:08:39;;;;;;;8.80;5.18;;;3.90;99.90;;;;;;459861;258;27538;-68
2022/01/22 10:10:40;;;;;;;7.18;5.28;;;3.90;99.90;;;;;;459847;258;28047;-68
2022/01/22 10:12:41;;;;;;;9.75;5.82;;;3.90;99.90;;;;;;459862;258;28014;-68
2022/01/22 10:14:43;;;;;;;8.00;5.53;;;3.90;99.90;;;;;;459880;258;27970;-68
2022/01/22 10:16:44;;;;;;;6.30;5.12;;;4.00;99.90;;;;;;459878;258;27930;-68
2022/01/22 10:18:45;;;;;;;7.70;5.65;;;4.10;99.90;;;;;;459863;258;27596;-68
2022/01/22 10:20:46;;;;;;;7.43;5.15;;;4.20;99.90;;;;;;459854;258;27455;-68
2022/01/22 10:22:48;;;;;;;7.22;5.10;;;4.20;99.90;;;;;;459876;258;27455;-68
2022/01/22 10:24:50;;;;;;;9.75;6.00;;;4.20;99.90;;;;;;459872;258;27507;-68
2022/01/22 10:26:50;;;;;;;6.87;5.45;;;4.20;99.90;;;;;;459839;258;27507;-68
2022/01/22 10:29:00;;;;;;;5.47;4.87;;;4.20;99.90;;;;;;459817;258;27543;-68
2022/01/22 10:30:55;;;;;;;8.50;5.43;;;4.10;99.90;;;;;;459740;258;27849;-68
2022/01/22 10:33:09;;;;;;;7.32;5.00;;;4.10;99.90;;;;;;459744;258;27542;-68
2022/01/22 10:35:01;;;;;;;8.25;5.45;;;4.20;99.90;;;;;;459729;258;28129;-68
2022/01/22 10:37:04;;;;;;;7.05;5.00;;;4.10;99.90;;;;;;459700;258;28050;-68
2022/01/22 10:39:03;;;;;;;6.32;5.25;;;4.10;99.90;;;;;;459752;258;27527;-68
2022/01/22 10:41:07;;;;;;;6.12;5.05;;;4.10;99.90;;;;;;459863;258;27493;-68
2022/01/22 10:43:06;;;;;;;5.47;4.87;;;4.20;99.90;;;;;;459848;258;27535;-68
2022/01/22 10:45:09;;;;;;;6.85;4.47;;;4.20;99.90;;;;;;459867;254;27506;-68
2022/01/22 10:47:08;;;;;;;5.40;4.43;;;4.30;99.90;;;;;;459845;258;27455;-68
2022/01/22 10:49:10;;;;;;;7.37;4.95;;;4.30;99.90;;;;;;459844;258;27500;-68
2022/01/22 10:51:11;;;;;;;6.93;5.30;;;4.30;99.90;;;;;;459869;258;27574;-68
2022/01/22 10:53:12;;;;;;;6.95;5.20;;;4.30;99.90;;;;;;459854;258;27503;-68
2022/01/22 10:55:13;;;;;;;7.20;5.00;;;4.30;99.90;;;;;;459866;258;27513;-68
2022/01/22 10:57:15;;;;;;;5.37;4.87;;;4.30;99.90;;;;;;459854;258;27477;-68
2022/01/22 10:59:19;;;;;;;6.07;4.45;;;4.30;99.90;;;;;;459848;258;28141;-68
2022/01/22 11:01:20;;;;;;;8.32;5.30;;;4.30;99.90;;;;;;459873;258;28050;-68
2022/01/22 11:03:21;;;;;;;7.00;5.28;;;4.40;99.90;;;;;;459855;258;27981;-68
2022/01/22 11:05:23;;;;;;;8.30;5.10;;;4.30;99.90;;;;;;459858;258;28017;-68
2022/01/22 11:07:24;;;;;;;8.50;5.70;;;4.30;99.90;;;;;;459847;258;27562;-68
2022/01/22 11:09:26;;;;;;;6.50;5.80;;;4.40;99.90;;;;;;459853;258;27523;-68
2022/01/22 11:11:26;;;;;;;8.68;5.87;;;4.40;99.90;;;;;;459877;258;27542;-68
2022/01/22 11:13:28;;;;;;;7.55;5.65;;;4.40;99.90;;;;;;459846;258;27507;-70
2022/01/22 11:15:29;;;;;;;9.15;6.43;;;4.50;99.90;;;;;;459865;258;27506;-68
2022/01/22 11:17:30;;;;;;;6.45;5.85;;;4.50;99.90;;;;;;459865;258;27603;-70
2022/01/22 11:19:32;;;;;;;7.43;5.75;;;4.50;99.90;;;;;;459858;258;27579;-70
2022/01/22 11:21:33;;;;;;;9.80;6.07;;;4.60;99.90;;;;;;459860;258;27540;-70
2022/01/22 11:23:34;;;;;;;9.65;6.80;;;4.50;99.90;;;;;;459857;258;27510;-68
2022/01/22 11:25:35;;;;;;;8.70;6.93;;;4.50;99.90;;;;;;459873;258;27501;-68
2022/01/22 11:27:36;;;;;;;9.77;6.25;;;4.50;99.90;;;;;;459849;258;28003;-68
2022/01/22 11:29:38;;;;;;;8.05;5.87;;;4.60;99.90;;;;;;459849;258;28174;-68
2022/01/22 11:31:39;;;;;;;7.00;6.30;;;4.50;99.90;;;;;;459874;258;27466;-68
2022/01/22 11:33:40;;;;;;;8.60;6.05;;;4.60;99.90;;;;;;459856;258;27611;-70
2022/01/22 11:35:41;;;;;;;8.63;6.55;;;4.50;99.90;;;;;;459866;258;27478;-70
2022/01/22 11:37:43;;;;;;;5.78;5.07;;;4.60;99.90;;;;;;459847;258;27579;-70
2022/01/22 11:39:44;;;;;;;7.03;5.75;;;4.50;99.90;;;;;;459875;258;27567;-70
2022/01/22 11:41:45;;;;;;;7.35;5.10;;;4.50;99.90;;;;;;459864;258;27599;-70
2022/01/22 11:43:50;;;;;;;7.97;6.00;;;4.50;99.90;;;;;;459860;258;28074;-70
2022/01/22 11:45:54;;;;;;;8.10;5.75;;;4.50;99.90;;;;;;459849;258;28007;-70
2022/01/22 11:47:52;;;;;;;9.23;5.50;;;4.50;99.90;;;;;;459848;258;27458;-70
2022/01/22 11:49:53;;;;;;;7.70;5.95;;;4.50;99.90;;;;;;459852;258;27487;-70
2022/01/22 11:51:54;;;;;;;6.40;5.40;;;4.50;99.90;;;;;;459864;258;27533;-70